sensor_id;sensor_type;location;lat;lon;timestamp;P1;durP1;ratioP1;P2;durP2;ratioP2
11539;SDS011;5826;54.756;9.192;2023-08-06T00:02:03;1.45;;;1.35;;
11539;SDS011;5826;54.756;9.192;2023-08-06T00:04:28;1.50;;;1.40;;
11539;SDS011;5826;54.756;9.192;2023-08-06T00:06:54;1.40;;;1.20;;
11539;SDS011;5826;54.756;9.192;2023-08-06T00:09:19;1.50;;;1.40;;
11539;SDS011;5826;54.756;9.192;2023-08-06T00:11:45;1.60;;;1.40;;
11539;SDS011;5826;54.756;9.192;2023-08-06T00:14:11;1.38;;;1.27;;
11539;SDS011;5826;54.756;9.192;2023-08-06T00:16:40;1.30;;;1.20;;
11539;SDS011;5826;54.756;9.192;2023-08-06T00:19:07;2.65;;;1.50;;
11539;SDS011;5826;54.756;9.192;2023-08-06T00:21:33;1.42;;;1.33;;
11539;SDS011;5826;54.756;9.192;2023-08-06T00:23:58;1.65;;;1.45;;
11539;SDS011;5826;54.756;9.192;2023-08-06T00:26:24;1.80;;;1.40;;
11539;SDS011;5826;54.756;9.192;2023-08-06T00:28:49;1.30;;;1.20;;
11539;SDS011;5826;54.756;9.192;2023-08-06T00:31:15;1.70;;;1.40;;
11539;SDS011;5826;54.756;9.192;2023-08-06T00:33:40;1.95;;;1.40;;
11539;SDS011;5826;54.756;9.192;2023-08-06T00:36:06;1.40;;;1.30;;
11539;SDS011;5826;54.756;9.192;2023-08-06T00:38:31;1.40;;;1.30;;
11539;SDS011;5826;54.756;9.192;2023-08-06T00:40:57;1.50;;;1.40;;
11539;SDS011;5826;54.756;9.192;2023-08-06T00:43:22;2.22;;;1.42;;
11539;SDS011;5826;54.756;9.192;2023-08-06T00:45:48;1.50;;;1.40;;
11539;SDS011;5826;54.756;9.192;2023-08-06T00:48:14;2.10;;;1.25;;
11539;SDS011;5826;54.756;9.192;2023-08-06T00:50:40;1.65;;;1.35;;
11539;SDS011;5826;54.756;9.192;2023-08-06T00:53:05;1.55;;;1.20;;
11539;SDS011;5826;54.756;9.192;2023-08-06T00:55:31;1.35;;;1.25;;
11539;SDS011;5826;54.756;9.192;2023-08-06T00:57:57;2.45;;;1.63;;
11539;SDS011;5826;54.756;9.192;2023-08-06T01:00:23;1.50;;;1.30;;
11539;SDS011;5826;54.756;9.192;2023-08-06T01:02:49;1.40;;;1.30;;
11539;SDS011;5826;54.756;9.192;2023-08-06T01:05:15;1.50;;;1.30;;
11539;SDS011;5826;54.756;9.192;2023-08-06T01:10:49;1.58;;;1.48;;
11539;SDS011;5826;54.756;9.192;2023-08-06T01:13:34;1.50;;;1.40;;
11539;SDS011;5826;54.756;9.192;2023-08-06T01:16:08;1.55;;;1.45;;
11539;SDS011;5826;54.756;9.192;2023-08-06T01:18:35;1.75;;;1.42;;
11539;SDS011;5826;54.756;9.192;2023-08-06T01:21:02;3.17;;;1.45;;
11539;SDS011;5826;54.756;9.192;2023-08-06T01:23:28;1.65;;;1.55;;
11539;SDS011;5826;54.756;9.192;2023-08-06T01:25:56;1.95;;;1.50;;
11539;SDS011;5826;54.756;9.192;2023-08-06T01:28:48;1.60;;;1.50;;
11539;SDS011;5826;54.756;9.192;2023-08-06T01:31:31;3.10;;;1.60;;
11539;SDS011;5826;54.756;9.192;2023-08-06T01:34:00;1.83;;;1.45;;
11539;SDS011;5826;54.756;9.192;2023-08-06T01:36:26;3.17;;;1.60;;
11539;SDS011;5826;54.756;9.192;2023-08-06T01:38:53;2.03;;;1.50;;
11539;SDS011;5826;54.756;9.192;2023-08-06T01:41:19;2.45;;;1.50;;
11539;SDS011;5826;54.756;9.192;2023-08-06T01:43:45;1.73;;;1.55;;
11539;SDS011;5826;54.756;9.192;2023-08-06T01:46:11;2.08;;;1.55;;
11539;SDS011;5826;54.756;9.192;2023-08-06T01:48:36;2.67;;;1.60;;
11539;SDS011;5826;54.756;9.192;2023-08-06T01:51:05;1.67;;;1.48;;
11539;SDS011;5826;54.756;9.192;2023-08-06T01:53:31;2.25;;;1.60;;
11539;SDS011;5826;54.756;9.192;2023-08-06T01:55:57;1.95;;;1.65;;
11539;SDS011;5826;54.756;9.192;2023-08-06T01:58:23;2.03;;;1.60;;
11539;SDS011;5826;54.756;9.192;2023-08-06T02:00:48;1.98;;;1.70;;
11539;SDS011;5826;54.756;9.192;2023-08-06T02:03:14;3.90;;;1.63;;
11539;SDS011;5826;54.756;9.192;2023-08-06T02:05:39;2.15;;;1.73;;
11539;SDS011;5826;54.756;9.192;2023-08-06T02:08:05;1.60;;;1.50;;
11539;SDS011;5826;54.756;9.192;2023-08-06T02:10:31;3.25;;;1.90;;
11539;SDS011;5826;54.756;9.192;2023-08-06T02:12:57;2.40;;;1.75;;
11539;SDS011;5826;54.756;9.192;2023-08-06T02:15:22;1.60;;;1.45;;
11539;SDS011;5826;54.756;9.192;2023-08-06T02:17:48;3.33;;;1.88;;
11539;SDS011;5826;54.756;9.192;2023-08-06T02:20:13;1.83;;;1.65;;
11539;SDS011;5826;54.756;9.192;2023-08-06T02:22:39;1.70;;;1.60;;
11539;SDS011;5826;54.756;9.192;2023-08-06T02:25:04;2.42;;;1.83;;
11539;SDS011;5826;54.756;9.192;2023-08-06T02:27:30;2.00;;;1.80;;
11539;SDS011;5826;54.756;9.192;2023-08-06T02:29:56;2.67;;;1.77;;
11539;SDS011;5826;54.756;9.192;2023-08-06T02:32:21;1.95;;;1.60;;
11539;SDS011;5826;54.756;9.192;2023-08-06T02:34:47;1.80;;;1.70;;
11539;SDS011;5826;54.756;9.192;2023-08-06T02:37:12;1.98;;;1.77;;
11539;SDS011;5826;54.756;9.192;2023-08-06T02:39:38;2.30;;;1.80;;
11539;SDS011;5826;54.756;9.192;2023-08-06T02:42:05;3.28;;;1.85;;
11539;SDS011;5826;54.756;9.192;2023-08-06T02:44:32;2.33;;;1.73;;
11539;SDS011;5826;54.756;9.192;2023-08-06T02:46:58;2.13;;;1.80;;
11539;SDS011;5826;54.756;9.192;2023-08-06T02:49:24;3.42;;;1.90;;
11539;SDS011;5826;54.756;9.192;2023-08-06T02:51:50;2.40;;;1.90;;
11539;SDS011;5826;54.756;9.192;2023-08-06T02:54:15;2.05;;;1.85;;
11539;SDS011;5826;54.756;9.192;2023-08-06T02:56:44;3.17;;;1.70;;
11539;SDS011;5826;54.756;9.192;2023-08-06T02:59:10;2.65;;;1.90;;
11539;SDS011;5826;54.756;9.192;2023-08-06T03:01:36;2.67;;;1.98;;
11539;SDS011;5826;54.756;9.192;2023-08-06T03:04:02;2.25;;;1.80;;
11539;SDS011;5826;54.756;9.192;2023-08-06T03:06:27;3.92;;;2.03;;
11539;SDS011;5826;54.756;9.192;2023-08-06T03:08:53;2.15;;;1.95;;
11539;SDS011;5826;54.756;9.192;2023-08-06T03:11:18;2.80;;;1.95;;
11539;SDS011;5826;54.756;9.192;2023-08-06T03:13:44;3.55;;;2.17;;
11539;SDS011;5826;54.756;9.192;2023-08-06T03:16:09;2.42;;;2.00;;
11539;SDS011;5826;54.756;9.192;2023-08-06T03:18:35;3.63;;;2.03;;
11539;SDS011;5826;54.756;9.192;2023-08-06T03:21:00;2.05;;;1.80;;
11539;SDS011;5826;54.756;9.192;2023-08-06T03:23:26;2.35;;;1.80;;
11539;SDS011;5826;54.756;9.192;2023-08-06T03:25:51;2.75;;;2.38;;
11539;SDS011;5826;54.756;9.192;2023-08-06T03:28:17;2.35;;;1.83;;
11539;SDS011;5826;54.756;9.192;2023-08-06T03:30:42;3.10;;;2.13;;
11539;SDS011;5826;54.756;9.192;2023-08-06T03:33:08;2.08;;;1.88;;
11539;SDS011;5826;54.756;9.192;2023-08-06T03:35:33;2.47;;;2.08;;
11539;SDS011;5826;54.756;9.192;2023-08-06T03:37:59;2.15;;;1.80;;
11539;SDS011;5826;54.756;9.192;2023-08-06T03:40:24;2.17;;;1.98;;
11539;SDS011;5826;54.756;9.192;2023-08-06T03:42:50;3.08;;;1.83;;
11539;SDS011;5826;54.756;9.192;2023-08-06T03:45:15;2.10;;;1.80;;
11539;SDS011;5826;54.756;9.192;2023-08-06T03:47:41;3.22;;;1.92;;
11539;SDS011;5826;54.756;9.192;2023-08-06T03:50:06;2.55;;;1.98;;
11539;SDS011;5826;54.756;9.192;2023-08-06T03:52:32;2.10;;;1.90;;
11539;SDS011;5826;54.756;9.192;2023-08-06T03:54:57;2.17;;;1.83;;
11539;SDS011;5826;54.756;9.192;2023-08-06T03:57:23;2.30;;;2.10;;
11539;SDS011;5826;54.756;9.192;2023-08-06T03:59:48;2.05;;;1.80;;
11539;SDS011;5826;54.756;9.192;2023-08-06T04:02:14;2.50;;;1.90;;
11539;SDS011;5826;54.756;9.192;2023-08-06T04:04:39;1.98;;;1.77;;
11539;SDS011;5826;54.756;9.192;2023-08-06T04:07:05;2.10;;;1.75;;
11539;SDS011;5826;54.756;9.192;2023-08-06T04:09:30;2.20;;;1.73;;
11539;SDS011;5826;54.756;9.192;2023-08-06T04:11:56;2.20;;;1.80;;
11539;SDS011;5826;54.756;9.192;2023-08-06T04:14:23;1.90;;;1.70;;
11539;SDS011;5826;54.756;9.192;2023-08-06T04:16:51;3.40;;;1.77;;
11539;SDS011;5826;54.756;9.192;2023-08-06T04:19:16;2.22;;;1.90;;
11539;SDS011;5826;54.756;9.192;2023-08-06T04:21:42;2.13;;;1.95;;
11539;SDS011;5826;54.756;9.192;2023-08-06T04:24:07;2.33;;;1.73;;
11539;SDS011;5826;54.756;9.192;2023-08-06T04:26:33;2.30;;;2.00;;
11539;SDS011;5826;54.756;9.192;2023-08-06T04:28:58;1.92;;;1.73;;
11539;SDS011;5826;54.756;9.192;2023-08-06T04:31:24;3.45;;;2.00;;
11539;SDS011;5826;54.756;9.192;2023-08-06T04:33:49;2.38;;;1.83;;
11539;SDS011;5826;54.756;9.192;2023-08-06T04:36:15;2.47;;;1.63;;
11539;SDS011;5826;54.756;9.192;2023-08-06T04:38:40;2.97;;;1.80;;
11539;SDS011;5826;54.756;9.192;2023-08-06T04:41:09;2.17;;;1.95;;
11539;SDS011;5826;54.756;9.192;2023-08-06T04:43:35;1.98;;;1.65;;
11539;SDS011;5826;54.756;9.192;2023-08-06T04:46:01;1.80;;;1.70;;
11539;SDS011;5826;54.756;9.192;2023-08-06T04:48:26;1.90;;;1.80;;
11539;SDS011;5826;54.756;9.192;2023-08-06T04:50:52;3.22;;;2.13;;
11539;SDS011;5826;54.756;9.192;2023-08-06T04:53:17;2.70;;;1.98;;
11539;SDS011;5826;54.756;9.192;2023-08-06T04:55:43;1.92;;;1.73;;
11539;SDS011;5826;54.756;9.192;2023-08-06T04:58:09;2.00;;;1.80;;
11539;SDS011;5826;54.756;9.192;2023-08-06T05:00:35;1.80;;;1.70;;
11539;SDS011;5826;54.756;9.192;2023-08-06T05:03:00;1.85;;;1.70;;
11539;SDS011;5826;54.756;9.192;2023-08-06T05:05:26;2.17;;;1.85;;
11539;SDS011;5826;54.756;9.192;2023-08-06T05:07:53;2.13;;;1.50;;
11539;SDS011;5826;54.756;9.192;2023-08-06T05:10:20;2.40;;;1.85;;
11539;SDS011;5826;54.756;9.192;2023-08-06T05:12:46;1.90;;;1.80;;
11539;SDS011;5826;54.756;9.192;2023-08-06T05:15:11;2.00;;;1.80;;
11539;SDS011;5826;54.756;9.192;2023-08-06T05:17:37;2.40;;;1.83;;
11539;SDS011;5826;54.756;9.192;2023-08-06T05:20:02;2.53;;;1.90;;
11539;SDS011;5826;54.756;9.192;2023-08-06T05:22:28;2.83;;;1.90;;
11539;SDS011;5826;54.756;9.192;2023-08-06T05:24:53;2.45;;;1.73;;
11539;SDS011;5826;54.756;9.192;2023-08-06T05:27:19;2.55;;;2.00;;
11539;SDS011;5826;54.756;9.192;2023-08-06T05:29:45;2.78;;;1.92;;
11539;SDS011;5826;54.756;9.192;2023-08-06T05:32:10;3.00;;;2.10;;
11539;SDS011;5826;54.756;9.192;2023-08-06T05:34:36;2.28;;;2.00;;
11539;SDS011;5826;54.756;9.192;2023-08-06T05:37:02;2.42;;;1.80;;
11539;SDS011;5826;54.756;9.192;2023-08-06T05:39:28;2.10;;;1.75;;
11539;SDS011;5826;54.756;9.192;2023-08-06T05:41:53;2.20;;;2.00;;
11539;SDS011;5826;54.756;9.192;2023-08-06T05:44:20;2.60;;;1.98;;
11539;SDS011;5826;54.756;9.192;2023-08-06T05:46:46;2.10;;;1.90;;
11539;SDS011;5826;54.756;9.192;2023-08-06T05:49:11;2.33;;;2.10;;
11539;SDS011;5826;54.756;9.192;2023-08-06T05:51:38;2.20;;;2.00;;
11539;SDS011;5826;54.756;9.192;2023-08-06T05:54:04;2.60;;;2.15;;
11539;SDS011;5826;54.756;9.192;2023-08-06T05:56:29;1.80;;;1.58;;
11539;SDS011;5826;54.756;9.192;2023-08-06T05:58:55;2.28;;;1.70;;
11539;SDS011;5826;54.756;9.192;2023-08-06T06:01:20;2.20;;;2.00;;
11539;SDS011;5826;54.756;9.192;2023-08-06T06:03:46;2.88;;;2.08;;
11539;SDS011;5826;54.756;9.192;2023-08-06T06:06:11;3.40;;;1.80;;
11539;SDS011;5826;54.756;9.192;2023-08-06T06:08:37;2.63;;;1.92;;
11539;SDS011;5826;54.756;9.192;2023-08-06T06:11:02;2.38;;;1.95;;
11539;SDS011;5826;54.756;9.192;2023-08-06T06:13:28;2.50;;;1.88;;
11539;SDS011;5826;54.756;9.192;2023-08-06T06:15:56;2.28;;;1.75;;
11539;SDS011;5826;54.756;9.192;2023-08-06T06:18:22;1.95;;;1.58;;
11539;SDS011;5826;54.756;9.192;2023-08-06T06:20:47;2.08;;;1.80;;
11539;SDS011;5826;54.756;9.192;2023-08-06T06:23:13;2.50;;;1.50;;
11539;SDS011;5826;54.756;9.192;2023-08-06T06:25:57;2.00;;;1.60;;
11539;SDS011;5826;54.756;9.192;2023-08-06T06:28:23;1.73;;;1.63;;
11539;SDS011;5826;54.756;9.192;2023-08-06T06:30:48;1.80;;;1.50;;
11539;SDS011;5826;54.756;9.192;2023-08-06T06:33:14;3.25;;;1.50;;
11539;SDS011;5826;54.756;9.192;2023-08-06T06:35:39;1.70;;;1.60;;
11539;SDS011;5826;54.756;9.192;2023-08-06T06:38:05;1.95;;;1.45;;
11539;SDS011;5826;54.756;9.192;2023-08-06T06:40:30;1.65;;;1.52;;
11539;SDS011;5826;54.756;9.192;2023-08-06T06:42:56;1.92;;;1.50;;
11539;SDS011;5826;54.756;9.192;2023-08-06T06:45:21;1.80;;;1.70;;
11539;SDS011;5826;54.756;9.192;2023-08-06T06:47:47;2.05;;;1.45;;
11539;SDS011;5826;54.756;9.192;2023-08-06T06:50:12;1.63;;;1.50;;
11539;SDS011;5826;54.756;9.192;2023-08-06T06:52:38;1.77;;;1.42;;
11539;SDS011;5826;54.756;9.192;2023-08-06T06:55:03;1.50;;;1.40;;
11539;SDS011;5826;54.756;9.192;2023-08-06T06:57:29;1.75;;;1.50;;
11539;SDS011;5826;54.756;9.192;2023-08-06T06:59:55;2.00;;;1.33;;
11539;SDS011;5826;54.756;9.192;2023-08-06T07:02:20;2.10;;;1.50;;
11539;SDS011;5826;54.756;9.192;2023-08-06T07:04:46;1.88;;;1.67;;
11539;SDS011;5826;54.756;9.192;2023-08-06T07:07:12;2.35;;;1.58;;
11539;SDS011;5826;54.756;9.192;2023-08-06T07:09:37;2.95;;;1.67;;
11539;SDS011;5826;54.756;9.192;2023-08-06T07:12:03;2.17;;;1.40;;
11539;SDS011;5826;54.756;9.192;2023-08-06T07:14:28;1.70;;;1.60;;
11539;SDS011;5826;54.756;9.192;2023-08-06T07:16:54;1.88;;;1.50;;
11539;SDS011;5826;54.756;9.192;2023-08-06T07:19:19;1.50;;;1.40;;
11539;SDS011;5826;54.756;9.192;2023-08-06T07:21:45;2.10;;;1.50;;
11539;SDS011;5826;54.756;9.192;2023-08-06T07:24:11;1.75;;;1.42;;
11539;SDS011;5826;54.756;9.192;2023-08-06T07:26:37;1.77;;;1.40;;
11539;SDS011;5826;54.756;9.192;2023-08-06T07:29:02;1.52;;;1.35;;
11539;SDS011;5826;54.756;9.192;2023-08-06T07:31:28;1.42;;;1.33;;
11539;SDS011;5826;54.756;9.192;2023-08-06T07:33:53;1.80;;;1.42;;
11539;SDS011;5826;54.756;9.192;2023-08-06T07:36:19;1.45;;;1.30;;
11539;SDS011;5826;54.756;9.192;2023-08-06T07:38:45;1.40;;;1.30;;
11539;SDS011;5826;54.756;9.192;2023-08-06T07:41:10;1.80;;;1.20;;
11539;SDS011;5826;54.756;9.192;2023-08-06T07:43:36;2.05;;;1.50;;
11539;SDS011;5826;54.756;9.192;2023-08-06T07:46:01;2.17;;;1.35;;
11539;SDS011;5826;54.756;9.192;2023-08-06T07:48:28;1.63;;;1.40;;
11539;SDS011;5826;54.756;9.192;2023-08-06T07:50:56;1.83;;;1.13;;
11539;SDS011;5826;54.756;9.192;2023-08-06T07:53:22;2.80;;;1.45;;
11539;SDS011;5826;54.756;9.192;2023-08-06T07:55:52;1.85;;;1.38;;
11539;SDS011;5826;54.756;9.192;2023-08-06T07:58:18;1.60;;;1.40;;
11539;SDS011;5826;54.756;9.192;2023-08-06T08:00:45;1.20;;;1.10;;
11539;SDS011;5826;54.756;9.192;2023-08-06T08:03:11;1.40;;;1.30;;
11539;SDS011;5826;54.756;9.192;2023-08-06T08:05:41;1.15;;;1.05;;
11539;SDS011;5826;54.756;9.192;2023-08-06T08:08:10;1.50;;;1.30;;
11539;SDS011;5826;54.756;9.192;2023-08-06T08:10:35;1.83;;;1.10;;
11539;SDS011;5826;54.756;9.192;2023-08-06T08:13:02;1.70;;;1.20;;
11539;SDS011;5826;54.756;9.192;2023-08-06T08:15:29;1.33;;;1.00;;
11539;SDS011;5826;54.756;9.192;2023-08-06T08:17:55;1.42;;;1.33;;
11539;SDS011;5826;54.756;9.192;2023-08-06T08:20:20;1.30;;;1.10;;
11539;SDS011;5826;54.756;9.192;2023-08-06T08:22:46;1.20;;;1.10;;
11539;SDS011;5826;54.756;9.192;2023-08-06T08:25:12;2.33;;;1.20;;
11539;SDS011;5826;54.756;9.192;2023-08-06T08:27:38;2.63;;;1.20;;
11539;SDS011;5826;54.756;9.192;2023-08-06T08:30:03;1.08;;;0.98;;
11539;SDS011;5826;54.756;9.192;2023-08-06T08:32:29;1.85;;;1.00;;
11539;SDS011;5826;54.756;9.192;2023-08-06T08:34:55;1.10;;;1.00;;
11539;SDS011;5826;54.756;9.192;2023-08-06T08:37:20;1.30;;;1.20;;
11539;SDS011;5826;54.756;9.192;2023-08-06T08:39:48;1.75;;;1.35;;
11539;SDS011;5826;54.756;9.192;2023-08-06T08:42:13;1.50;;;1.38;;
11539;SDS011;5826;54.756;9.192;2023-08-06T08:44:40;1.38;;;1.10;;
11539;SDS011;5826;54.756;9.192;2023-08-06T08:47:07;1.48;;;1.17;;
11539;SDS011;5826;54.756;9.192;2023-08-06T08:49:36;1.30;;;1.20;;
11539;SDS011;5826;54.756;9.192;2023-08-06T08:52:03;1.27;;;1.17;;
11539;SDS011;5826;54.756;9.192;2023-08-06T08:54:34;1.25;;;1.15;;
11539;SDS011;5826;54.756;9.192;2023-08-06T08:57:01;1.67;;;1.27;;
11539;SDS011;5826;54.756;9.192;2023-08-06T08:59:27;1.50;;;1.05;;
11539;SDS011;5826;54.756;9.192;2023-08-06T09:01:52;1.38;;;1.15;;
11539;SDS011;5826;54.756;9.192;2023-08-06T09:04:19;1.27;;;1.10;;
11539;SDS011;5826;54.756;9.192;2023-08-06T09:06:47;1.20;;;1.10;;
11539;SDS011;5826;54.756;9.192;2023-08-06T09:09:22;1.60;;;1.50;;
11539;SDS011;5826;54.756;9.192;2023-08-06T09:11:55;1.30;;;1.20;;
11539;SDS011;5826;54.756;9.192;2023-08-06T09:14:27;1.35;;;1.25;;
11539;SDS011;5826;54.756;9.192;2023-08-06T09:16:52;1.40;;;1.30;;
11539;SDS011;5826;54.756;9.192;2023-08-06T09:19:19;1.27;;;1.17;;
11539;SDS011;5826;54.756;9.192;2023-08-06T09:21:45;1.40;;;1.20;;
11539;SDS011;5826;54.756;9.192;2023-08-06T09:24:14;1.88;;;1.17;;
11539;SDS011;5826;54.756;9.192;2023-08-06T09:26:40;1.85;;;1.40;;
11539;SDS011;5826;54.756;9.192;2023-08-06T09:29:07;1.80;;;1.38;;
11539;SDS011;5826;54.756;9.192;2023-08-06T09:31:36;1.73;;;1.20;;
11539;SDS011;5826;54.756;9.192;2023-08-06T09:34:06;1.98;;;1.60;;
11539;SDS011;5826;54.756;9.192;2023-08-06T09:36:42;1.40;;;1.30;;
11539;SDS011;5826;54.756;9.192;2023-08-06T09:39:14;1.75;;;1.35;;
11539;SDS011;5826;54.756;9.192;2023-08-06T09:41:41;1.48;;;1.38;;
11539;SDS011;5826;54.756;9.192;2023-08-06T09:44:20;2.33;;;1.35;;
11539;SDS011;5826;54.756;9.192;2023-08-06T09:46:47;1.95;;;1.40;;
11539;SDS011;5826;54.756;9.192;2023-08-06T09:49:14;2.53;;;1.25;;
11539;SDS011;5826;54.756;9.192;2023-08-06T09:51:41;1.73;;;1.30;;
11539;SDS011;5826;54.756;9.192;2023-08-06T09:54:06;1.40;;;1.30;;
11539;SDS011;5826;54.756;9.192;2023-08-06T09:56:35;2.08;;;1.40;;
11539;SDS011;5826;54.756;9.192;2023-08-06T09:59:04;1.40;;;1.30;;
11539;SDS011;5826;54.756;9.192;2023-08-06T10:01:32;1.50;;;1.40;;
11539;SDS011;5826;54.756;9.192;2023-08-06T10:03:58;1.40;;;1.30;;
11539;SDS011;5826;54.756;9.192;2023-08-06T10:06:26;2.08;;;1.40;;
11539;SDS011;5826;54.756;9.192;2023-08-06T10:08:53;1.67;;;1.50;;
11539;SDS011;5826;54.756;9.192;2023-08-06T10:11:18;1.85;;;1.42;;
11539;SDS011;5826;54.756;9.192;2023-08-06T10:13:48;1.67;;;1.58;;
11539;SDS011;5826;54.756;9.192;2023-08-06T10:16:19;1.77;;;1.30;;
11539;SDS011;5826;54.756;9.192;2023-08-06T10:18:45;1.45;;;1.35;;
11539;SDS011;5826;54.756;9.192;2023-08-06T10:21:14;1.98;;;1.40;;
11539;SDS011;5826;54.756;9.192;2023-08-06T10:23:41;1.65;;;1.35;;
11539;SDS011;5826;54.756;9.192;2023-08-06T10:26:06;1.50;;;1.40;;
11539;SDS011;5826;54.756;9.192;2023-08-06T10:28:38;1.20;;;1.10;;
11539;SDS011;5826;54.756;9.192;2023-08-06T10:31:05;1.75;;;1.40;;
11539;SDS011;5826;54.756;9.192;2023-08-06T10:33:44;2.15;;;1.38;;
11539;SDS011;5826;54.756;9.192;2023-08-06T10:36:10;1.55;;;1.45;;
11539;SDS011;5826;54.756;9.192;2023-08-06T10:38:49;2.53;;;1.40;;
11539;SDS011;5826;54.756;9.192;2023-08-06T10:41:16;1.40;;;1.30;;
11539;SDS011;5826;54.756;9.192;2023-08-06T10:43:48;1.55;;;1.30;;
11539;SDS011;5826;54.756;9.192;2023-08-06T10:46:22;1.30;;;1.20;;
11539;SDS011;5826;54.756;9.192;2023-08-06T10:48:56;2.17;;;1.08;;
11539;SDS011;5826;54.756;9.192;2023-08-06T10:51:22;1.60;;;1.50;;
11539;SDS011;5826;54.756;9.192;2023-08-06T10:53:48;1.58;;;1.40;;
11539;SDS011;5826;54.756;9.192;2023-08-06T10:56:18;1.35;;;1.25;;
11539;SDS011;5826;54.756;9.192;2023-08-06T10:58:49;1.00;;;1.00;;
11539;SDS011;5826;54.756;9.192;2023-08-06T11:01:16;1.20;;;1.10;;
11539;SDS011;5826;54.756;9.192;2023-08-06T11:03:42;1.48;;;1.30;;
11539;SDS011;5826;54.756;9.192;2023-08-06T11:06:09;1.60;;;1.30;;
11539;SDS011;5826;54.756;9.192;2023-08-06T11:08:36;1.70;;;1.30;;
11539;SDS011;5826;54.756;9.192;2023-08-06T11:11:12;1.50;;;1.10;;
11539;SDS011;5826;54.756;9.192;2023-08-06T11:13:42;1.42;;;1.33;;
11539;SDS011;5826;54.756;9.192;2023-08-06T11:16:11;1.40;;;1.02;;
11539;SDS011;5826;54.756;9.192;2023-08-06T11:18:52;1.75;;;1.10;;
11539;SDS011;5826;54.756;9.192;2023-08-06T11:21:19;1.20;;;1.10;;
11539;SDS011;5826;54.756;9.192;2023-08-06T11:23:45;1.20;;;1.10;;
11539;SDS011;5826;54.756;9.192;2023-08-06T11:26:11;1.95;;;1.40;;
11539;SDS011;5826;54.756;9.192;2023-08-06T11:28:36;1.80;;;1.25;;
11539;SDS011;5826;54.756;9.192;2023-08-06T11:31:02;1.50;;;1.40;;
11539;SDS011;5826;54.756;9.192;2023-08-06T11:33:29;1.23;;;1.13;;
11539;SDS011;5826;54.756;9.192;2023-08-06T11:35:55;1.30;;;1.20;;
11539;SDS011;5826;54.756;9.192;2023-08-06T11:38:22;1.48;;;1.20;;
11539;SDS011;5826;54.756;9.192;2023-08-06T11:40:50;1.40;;;1.05;;
11539;SDS011;5826;54.756;9.192;2023-08-06T11:43:17;1.20;;;1.05;;
11539;SDS011;5826;54.756;9.192;2023-08-06T11:45:44;1.17;;;1.02;;
11539;SDS011;5826;54.756;9.192;2023-08-06T11:48:09;1.92;;;1.10;;
11539;SDS011;5826;54.756;9.192;2023-08-06T11:50:38;1.35;;;1.20;;
11539;SDS011;5826;54.756;9.192;2023-08-06T11:53:03;1.48;;;1.20;;
11539;SDS011;5826;54.756;9.192;2023-08-06T11:55:29;1.33;;;1.23;;
11539;SDS011;5826;54.756;9.192;2023-08-06T11:57:55;1.77;;;1.25;;
11539;SDS011;5826;54.756;9.192;2023-08-06T12:00:22;1.52;;;1.10;;
11539;SDS011;5826;54.756;9.192;2023-08-06T12:02:49;1.10;;;1.00;;
11539;SDS011;5826;54.756;9.192;2023-08-06T12:05:20;1.10;;;0.98;;
11539;SDS011;5826;54.756;9.192;2023-08-06T12:07:49;1.50;;;1.13;;
11539;SDS011;5826;54.756;9.192;2023-08-06T12:10:18;1.00;;;1.00;;
11539;SDS011;5826;54.756;9.192;2023-08-06T12:12:44;0.90;;;0.90;;
11539;SDS011;5826;54.756;9.192;2023-08-06T12:15:10;1.58;;;1.00;;
11539;SDS011;5826;54.756;9.192;2023-08-06T12:17:36;1.10;;;1.00;;
11539;SDS011;5826;54.756;9.192;2023-08-06T12:20:02;1.40;;;1.30;;
11539;SDS011;5826;54.756;9.192;2023-08-06T12:22:32;1.35;;;0.95;;
11539;SDS011;5826;54.756;9.192;2023-08-06T12:25:02;1.13;;;1.02;;
11539;SDS011;5826;54.756;9.192;2023-08-06T12:27:32;1.13;;;1.00;;
11539;SDS011;5826;54.756;9.192;2023-08-06T12:30:01;1.05;;;0.95;;
11539;SDS011;5826;54.756;9.192;2023-08-06T12:32:28;1.20;;;1.10;;
11539;SDS011;5826;54.756;9.192;2023-08-06T12:34:54;1.20;;;1.10;;
11539;SDS011;5826;54.756;9.192;2023-08-06T12:37:19;0.85;;;0.80;;
11539;SDS011;5826;54.756;9.192;2023-08-06T12:39:45;0.90;;;0.90;;
11539;SDS011;5826;54.756;9.192;2023-08-06T12:42:11;1.10;;;1.00;;
11539;SDS011;5826;54.756;9.192;2023-08-06T12:44:36;1.10;;;1.00;;
11539;SDS011;5826;54.756;9.192;2023-08-06T12:47:02;1.13;;;1.05;;
11539;SDS011;5826;54.756;9.192;2023-08-06T12:49:27;1.20;;;1.00;;
11539;SDS011;5826;54.756;9.192;2023-08-06T12:51:54;0.98;;;0.98;;
11539;SDS011;5826;54.756;9.192;2023-08-06T12:54:20;1.17;;;1.08;;
11539;SDS011;5826;54.756;9.192;2023-08-06T12:56:46;1.08;;;1.00;;
11539;SDS011;5826;54.756;9.192;2023-08-06T12:59:13;1.00;;;1.00;;
11539;SDS011;5826;54.756;9.192;2023-08-06T13:01:40;1.30;;;1.20;;
11539;SDS011;5826;54.756;9.192;2023-08-06T13:04:05;1.23;;;1.13;;
11539;SDS011;5826;54.756;9.192;2023-08-06T13:06:31;1.27;;;1.10;;
11539;SDS011;5826;54.756;9.192;2023-08-06T13:09:02;1.00;;;1.00;;
11539;SDS011;5826;54.756;9.192;2023-08-06T13:11:28;1.15;;;1.10;;
11539;SDS011;5826;54.756;9.192;2023-08-06T13:13:55;1.20;;;1.10;;
11539;SDS011;5826;54.756;9.192;2023-08-06T13:16:21;1.00;;;0.90;;
11539;SDS011;5826;54.756;9.192;2023-08-06T13:18:47;0.93;;;0.90;;
11539;SDS011;5826;54.756;9.192;2023-08-06T13:21:12;0.90;;;0.90;;
11539;SDS011;5826;54.756;9.192;2023-08-06T13:23:38;1.48;;;1.10;;
11539;SDS011;5826;54.756;9.192;2023-08-06T13:26:03;1.25;;;1.10;;
11539;SDS011;5826;54.756;9.192;2023-08-06T13:28:29;2.25;;;1.10;;
11539;SDS011;5826;54.756;9.192;2023-08-06T13:30:55;1.38;;;1.13;;
11539;SDS011;5826;54.756;9.192;2023-08-06T13:33:20;1.00;;;1.00;;
11539;SDS011;5826;54.756;9.192;2023-08-06T13:35:46;1.65;;;0.90;;
11539;SDS011;5826;54.756;9.192;2023-08-06T13:38:11;1.25;;;1.15;;
11539;SDS011;5826;54.756;9.192;2023-08-06T13:40:37;1.42;;;1.15;;
11539;SDS011;5826;54.756;9.192;2023-08-06T13:43:02;1.35;;;1.25;;
11539;SDS011;5826;54.756;9.192;2023-08-06T13:45:28;1.85;;;1.20;;
11539;SDS011;5826;54.756;9.192;2023-08-06T13:47:54;1.30;;;1.20;;
11539;SDS011;5826;54.756;9.192;2023-08-06T13:50:20;1.00;;;1.00;;
11539;SDS011;5826;54.756;9.192;2023-08-06T13:52:47;0.90;;;0.90;;
11539;SDS011;5826;54.756;9.192;2023-08-06T13:55:12;1.42;;;1.05;;
11539;SDS011;5826;54.756;9.192;2023-08-06T13:57:38;1.20;;;1.08;;
11539;SDS011;5826;54.756;9.192;2023-08-06T14:00:03;1.05;;;1.00;;
11539;SDS011;5826;54.756;9.192;2023-08-06T14:02:30;1.20;;;1.10;;
11539;SDS011;5826;54.756;9.192;2023-08-06T14:04:56;1.50;;;1.20;;
11539;SDS011;5826;54.756;9.192;2023-08-06T14:07:21;1.00;;;1.00;;
11539;SDS011;5826;54.756;9.192;2023-08-06T14:09:47;1.20;;;1.10;;
11539;SDS011;5826;54.756;9.192;2023-08-06T14:12:14;1.20;;;1.00;;
11539;SDS011;5826;54.756;9.192;2023-08-06T14:14:39;1.63;;;1.15;;
11539;SDS011;5826;54.756;9.192;2023-08-06T14:17:05;1.33;;;1.20;;
11539;SDS011;5826;54.756;9.192;2023-08-06T14:19:31;1.52;;;1.30;;
11539;SDS011;5826;54.756;9.192;2023-08-06T14:21:56;1.10;;;1.00;;
11539;SDS011;5826;54.756;9.192;2023-08-06T14:24:22;0.90;;;0.90;;
11539;SDS011;5826;54.756;9.192;2023-08-06T14:26:47;1.20;;;0.90;;
11539;SDS011;5826;54.756;9.192;2023-08-06T14:29:13;1.20;;;1.10;;
11539;SDS011;5826;54.756;9.192;2023-08-06T14:31:39;1.15;;;1.05;;
11539;SDS011;5826;54.756;9.192;2023-08-06T14:34:05;1.20;;;1.10;;
11539;SDS011;5826;54.756;9.192;2023-08-06T14:36:31;1.58;;;1.08;;
11539;SDS011;5826;54.756;9.192;2023-08-06T14:38:56;1.20;;;1.10;;
11539;SDS011;5826;54.756;9.192;2023-08-06T14:41:21;0.90;;;0.90;;
11539;SDS011;5826;54.756;9.192;2023-08-06T14:43:47;1.45;;;1.10;;
11539;SDS011;5826;54.756;9.192;2023-08-06T14:46:13;1.50;;;1.00;;
11539;SDS011;5826;54.756;9.192;2023-08-06T14:48:38;1.20;;;1.10;;
11539;SDS011;5826;54.756;9.192;2023-08-06T14:51:04;1.30;;;1.05;;
11539;SDS011;5826;54.756;9.192;2023-08-06T14:53:29;1.52;;;1.13;;
11539;SDS011;5826;54.756;9.192;2023-08-06T14:55:55;1.13;;;1.00;;
11539;SDS011;5826;54.756;9.192;2023-08-06T14:58:20;1.10;;;1.00;;
11539;SDS011;5826;54.756;9.192;2023-08-06T15:00:46;1.23;;;1.13;;